Time;durP1;ratioP1;P1;durP2;ratioP2;P2;SDS_P1;SDS_P2;PMS_P1;PMS_P2;Temp;Humidity;BMP_temperature;BMP_pressure;BME280_temperature;BME280_humidity;BME280_pressure;Samples;Min_cycle;Max_cycle;Signal;HPM_P1;HPM_P2
2021/03/06 00:02:15;;;;;;;33.95;16.63;;;;;;;0.47;60.28;101188.00;5022407;28;20544;-77
2021/03/06 00:04:41;;;;;;;30.40;15.65;;;;;;;0.42;60.58;101193.94;5015216;28;20045;-76
2021/03/06 00:07:08;;;;;;;38.17;17.25;;;;;;;0.39;60.54;101197.28;5022515;28;20057;-77
2021/03/06 00:09:36;;;;;;;35.75;16.67;;;;;;;0.34;60.54;101193.78;5024768;28;20049;-77
2021/03/06 00:12:02;;;;;;;39.13;18.00;;;;;;;0.30;60.72;101194.56;5023778;28;20135;-76
2021/03/06 00:14:28;;;;;;;33.30;16.15;;;;;;;0.23;60.74;101196.16;5026601;28;20080;-76
2021/03/06 00:16:54;;;;;;;34.38;17.23;;;;;;;0.18;61.00;101192.59;5020583;28;20050;-77
2021/03/06 00:19:20;;;;;;;35.70;16.63;;;;;;;0.14;60.98;101187.38;5026341;28;20446;-76
2021/03/06 00:21:47;;;;;;;32.60;16.05;;;;;;;0.11;60.94;101190.75;5022433;28;20053;-75
2021/03/06 00:24:13;;;;;;;35.97;16.85;;;;;;;0.08;61.21;101198.44;5021470;28;20667;-75
2021/03/06 00:26:43;;;;;;;36.40;18.38;;;;;;;0.04;61.29;101199.22;5024410;28;20042;-76
2021/03/06 00:29:09;;;;;;;40.75;19.13;;;;;;;0.00;61.37;101197.44;5026441;28;20199;-76
2021/03/06 00:31:36;;;;;;;35.90;18.23;;;;;;;-0.06;61.49;101198.16;5026864;28;20095;-75
2021/03/06 00:34:03;;;;;;;37.15;18.38;;;;;;;-0.08;61.56;101205.00;5021223;28;21184;-77
2021/03/06 00:36:29;;;;;;;37.58;19.83;;;;;;;-0.09;61.44;101204.97;5025894;28;20136;-76
2021/03/06 00:38:55;;;;;;;34.45;18.50;;;;;;;-0.09;61.56;101202.41;5027384;28;20500;-75
2021/03/06 00:41:21;;;;;;;39.53;17.58;;;;;;;-0.08;61.56;101204.13;5029147;28;20048;-76
2021/03/06 00:43:49;;;;;;;37.88;18.73;;;;;;;-0.12;61.60;101203.22;5019763;28;20109;-77
2021/03/06 00:46:16;;;;;;;35.88;18.00;;;;;;;-0.12;61.66;101202.34;5025192;28;20042;-77
2021/03/06 00:48:43;;;;;;;34.67;19.45;;;;;;;-0.17;61.57;101199.69;5024499;28;20045;-77
2021/03/06 00:51:12;;;;;;;34.53;18.35;;;;;;;-0.18;61.67;101197.94;5022459;28;20033;-77
2021/03/06 00:53:40;;;;;;;41.78;18.75;;;;;;;-0.23;61.85;101193.50;5024848;28;20041;-76
2021/03/06 00:56:07;;;;;;;34.95;20.05;;;;;;;-0.27;61.74;101195.16;5026921;28;20080;-77
2021/03/06 00:58:33;;;;;;;38.88;20.08;;;;;;;-0.29;61.82;101193.38;5023358;28;20453;-76
2021/03/06 01:01:00;;;;;;;47.67;22.00;;;;;;;-0.31;61.94;101196.81;5026495;28;20133;-76
2021/03/06 01:03:27;;;;;;;50.63;24.20;;;;;;;-0.31;61.82;101191.66;5025154;28;20049;-77
2021/03/06 01:05:53;;;;;;;42.67;21.83;;;;;;;-0.33;61.95;101193.31;5026796;28;20041;-76
2021/03/06 01:08:19;;;;;;;38.28;19.70;;;;;;;-0.34;61.92;101191.59;5017422;28;20042;-77
2021/03/06 01:10:46;;;;;;;46.47;22.10;;;;;;;-0.33;61.89;101198.47;5029691;28;20072;-78
2021/03/06 01:13:13;;;;;;;43.80;19.63;;;;;;;-0.33;61.90;101200.19;5026879;28;20332;-76
2021/03/06 01:15:39;;;;;;;38.75;20.67;;;;;;;-0.35;62.08;101200.16;5028929;28;20540;-75
2021/03/06 01:18:07;;;;;;;38.10;19.63;;;;;;;-0.39;62.36;101197.50;5025059;28;20045;-77
2021/03/06 01:20:35;;;;;;;34.35;17.38;;;;;;;-0.41;62.17;101194.88;5023715;28;20096;-78
2021/03/06 01:23:02;;;;;;;34.70;18.85;;;;;;;-0.42;62.26;101190.53;5029371;28;20053;-77
2021/03/06 01:25:28;;;;;;;40.25;19.98;;;;;;;-0.44;62.43;101189.66;5031758;28;20045;-75
2021/03/06 01:27:54;;;;;;;35.47;18.15;;;;;;;-0.45;62.28;101194.75;5027763;28;20136;-76
2021/03/06 01:30:21;;;;;;;40.30;20.50;;;;;;;-0.45;62.54;101197.34;5027736;28;20077;-74
2021/03/06 01:32:48;;;;;;;36.67;19.60;;;;;;;-0.48;62.42;101195.56;5026985;28;20068;-77
2021/03/06 01:35:15;;;;;;;35.33;18.90;;;;;;;-0.51;63.06;101202.38;5024655;28;20106;-75
2021/03/06 01:37:42;;;;;;;35.17;18.25;;;;;;;-0.52;62.65;101196.34;5026477;28;20084;-74
2021/03/06 01:40:10;;;;;;;33.63;16.77;;;;;;;-0.51;62.65;101204.94;5032077;28;20042;-74
2021/03/06 01:42:37;;;;;;;36.85;17.40;;;;;;;-0.52;62.74;101201.50;5029848;28;20392;-74
2021/03/06 01:45:03;;;;;;;30.73;16.95;;;;;;;-0.55;62.77;101193.72;5026198;28;20052;-75
2021/03/06 01:47:30;;;;;;;30.58;16.10;;;;;;;-0.59;62.82;101198.78;5023759;28;20132;-74
2021/03/06 01:49:56;;;;;;;37.25;15.45;;;;;;;-0.60;62.70;101197.91;5029974;28;20051;-74
2021/03/06 01:52:26;;;;;;;31.70;16.58;;;;;;;-0.61;62.86;101196.16;5020589;28;20049;-74
2021/03/06 01:54:54;;;;;;;29.10;16.20;;;;;;;-0.62;62.97;101204.72;5026370;28;20052;-74
2021/03/06 01:57:20;;;;;;;30.13;15.32;;;;;;;-0.63;62.77;101202.97;5022093;28;20132;-74
2021/03/06 01:59:47;;;;;;;31.95;15.15;;;;;;;-0.65;62.98;101195.19;5023374;28;20191;-75
2021/03/06 02:02:13;;;;;;;26.20;13.68;;;;;;;-0.65;62.86;101194.31;5026576;28;20132;-73
2021/03/06 02:04:39;;;;;;;28.75;14.70;;;;;;;-0.65;62.85;101194.31;5024513;28;20052;-78
2021/03/06 02:07:05;;;;;;;31.20;14.30;;;;;;;-0.67;62.87;101201.16;5035877;28;20049;-76
2021/03/06 02:09:32;;;;;;;30.25;14.85;;;;;;;-0.68;62.88;101204.56;5043361;28;20072;-76
2021/03/06 02:12:05;;;;;;;29.45;14.90;;;;;;;-0.70;62.81;101189.09;5028173;28;20079;-75
2021/03/06 02:15:03;;;;;;;28.00;13.68;;;;;;;-0.72;63.03;101187.31;5027332;28;20397;-75
2021/03/06 02:17:35;;;;;;;29.20;14.55;;;;;;;-0.74;62.82;101192.44;5021170;28;20136;-75
2021/03/06 02:20:23;;;;;;;36.05;17.33;;;;;;;-0.79;63.05;101203.47;5029304;28;20061;-75
2021/03/06 02:23:07;;;;;;;39.42;19.33;;;;;;;-0.81;62.96;101202.56;5010985;28;20080;-75
2021/03/06 02:26:04;;;;;;;40.88;19.73;;;;;;;-0.82;63.12;101200.84;5023574;28;20073;-75
2021/03/06 02:28:37;;;;;;;35.67;16.25;;;;;;;-0.88;63.12;101206.69;5023793;28;20048;-76
2021/03/06 02:31:10;;;;;;;33.00;15.77;;;;;;;-0.91;62.89;101211.78;5026969;28;20061;-76
2021/03/06 02:33:42;;;;;;;32.92;15.38;;;;;;;-0.92;62.94;101210.03;5024134;28;20531;-74
2021/03/06 02:36:11;;;;;;;37.70;16.55;;;;;;;-0.93;62.91;101219.47;5022760;28;20062;-75
2021/03/06 02:38:44;;;;;;;32.65;16.67;;;;;;;-0.97;63.17;101215.06;5027740;28;20551;-75
2021/03/06 02:41:11;;;;;;;30.35;15.10;;;;;;;-0.94;62.95;101222.00;5028835;28;20046;-76
2021/03/06 02:43:38;;;;;;;29.52;14.90;;;;;;;-0.95;62.82;101221.13;5023114;28;20609;-76
2021/03/06 02:46:05;;;;;;;26.73;14.10;;;;;;;-0.95;62.97;101231.41;5027208;28;20140;-74
2021/03/06 02:48:33;;;;;;;29.60;14.20;;;;;;;-0.95;63.06;101227.97;5027800;28;20049;-74
2021/03/06 02:50:59;;;;;;;30.58;13.75;;;;;;;-0.98;62.89;101228.78;5028726;28;20124;-75
2021/03/06 02:53:25;;;;;;;32.00;14.05;;;;;;;-1.01;63.09;101231.28;5026970;28;20490;-75
2021/03/06 02:55:52;;;;;;;29.88;13.85;;;;;;;-1.03;63.15;101232.97;5026412;28;20041;-76
2021/03/06 02:58:24;;;;;;;30.05;14.20;;;;;;;-1.02;63.21;101229.53;5026108;28;20056;-76
2021/03/06 03:00:52;;;;;;;33.28;14.57;;;;;;;-1.00;63.12;101233.03;5024461;28;20164;-76
2021/03/06 03:03:29;;;;;;;27.33;14.40;;;;;;;-1.03;63.03;101238.09;5021182;28;20048;-76
2021/03/06 03:06:06;;;;;;;27.63;14.10;;;;;;;-0.99;63.07;101244.19;5018366;28;20099;-77
2021/03/06 03:08:40;;;;;;;23.83;12.13;;;;;;;-1.00;62.98;101243.31;5022917;28;20076;-77
2021/03/06 03:11:20;;;;;;;28.83;13.25;;;;;;;-1.04;63.22;101249.22;5023409;28;20092;-77
2021/03/06 03:13:54;;;;;;;23.23;10.93;;;;;;;-1.04;63.07;101253.47;5025526;28;20046;-77
2021/03/06 03:16:31;;;;;;;26.38;13.13;;;;;;;-1.06;63.24;101250.88;5025360;28;20065;-77
2021/03/06 03:19:03;;;;;;;26.23;13.00;;;;;;;-1.04;62.98;101250.91;5023587;28;20041;-77
2021/03/06 03:21:35;;;;;;;28.20;13.85;;;;;;;-1.06;62.96;101253.44;5026505;28;20053;-76
2021/03/06 03:24:07;;;;;;;26.58;13.68;;;;;;;-1.12;63.23;101255.88;5018087;28;20050;-77
2021/03/06 03:26:38;;;;;;;27.23;12.75;;;;;;;-1.11;63.14;101260.19;5021720;28;20041;-78
2021/03/06 03:29:06;;;;;;;24.25;12.48;;;;;;;-1.12;63.19;101258.44;5027433;28;20079;-78
2021/03/06 03:31:35;;;;;;;25.48;11.90;;;;;;;-1.13;63.29;101263.56;5025808;28;20049;-77
2021/03/06 03:34:03;;;;;;;27.65;14.50;;;;;;;-1.14;63.18;101260.13;5020365;28;20136;-78
2021/03/06 03:36:32;;;;;;;29.27;14.52;;;;;;;-1.17;63.26;101265.19;5024412;28;20052;-77
2021/03/06 03:38:58;;;;;;;24.83;12.05;;;;;;;-1.20;63.35;101270.25;5024047;28;20104;-76
2021/03/06 03:41:27;;;;;;;22.00;11.57;;;;;;;-1.22;63.41;101269.34;5027385;28;20045;-76
2021/03/06 03:43:55;;;;;;;26.35;13.35;;;;;;;-1.25;63.38;101271.81;5024144;28;20432;-76
2021/03/06 03:46:22;;;;;;;30.67;12.75;;;;;;;-1.26;63.34;101270.06;5023192;28;20519;-76
2021/03/06 03:48:50;;;;;;;29.30;13.40;;;;;;;-1.30;63.45;101276.84;5026338;28;20054;-77
2021/03/06 03:51:16;;;;;;;27.33;13.90;;;;;;;-1.33;63.50;101278.47;5027445;28;20053;-77
2021/03/06 03:53:44;;;;;;;32.67;15.35;;;;;;;-1.38;63.60;101285.22;5022262;28;20050;-77
2021/03/06 03:56:10;;;;;;;28.05;16.23;;;;;;;-1.40;63.71;101297.16;5026756;28;20068;-75
2021/03/06 03:58:36;;;;;;;40.00;17.02;;;;;;;-1.41;63.47;101292.84;5018019;28;20038;-77
2021/03/06 04:01:03;;;;;;;36.92;18.60;;;;;;;-1.42;63.41;101291.09;5023863;28;20042;-77
2021/03/06 04:03:29;;;;;;;36.30;17.77;;;;;;;-1.42;63.53;101293.69;5024940;28;20111;-76
2021/03/06 04:05:57;;;;;;;38.63;16.48;;;;;;;-1.41;63.54;101292.84;5028066;28;20053;-77
2021/03/06 04:08:24;;;;;;;35.95;15.07;;;;;;;-1.40;63.59;101297.16;5022589;28;20045;-77
2021/03/06 04:10:51;;;;;;;31.63;15.15;;;;;;;-1.42;63.54;101293.69;5025840;28;20464;-77
2021/03/06 04:13:17;;;;;;;34.67;15.60;;;;;;;-1.41;63.53;101293.72;5026453;28;20359;-77
2021/03/06 04:15:43;;;;;;;31.90;14.63;;;;;;;-1.45;63.66;101299.63;5029384;28;20577;-76
2021/03/06 04:18:09;;;;;;;33.47;15.63;;;;;;;-1.44;63.62;101300.50;5022991;28;20053;-77
2021/03/06 04:20:36;;;;;;;30.27;15.18;;;;;;;-1.45;63.84;101299.63;5028211;28;20046;-77
2021/03/06 04:23:02;;;;;;;28.65;13.77;;;;;;;-1.44;63.66;101305.63;5023790;28;20081;-75
2021/03/06 04:25:28;;;;;;;31.83;13.80;;;;;;;-1.47;63.64;101297.81;5025745;28;20161;-76
2021/03/06 04:27:57;;;;;;;22.60;13.38;;;;;;;-1.49;63.64;101302.03;5023777;28;20045;-75
2021/03/06 04:30:24;;;;;;;30.33;13.55;;;;;;;-1.48;63.74;101308.94;5029181;28;20492;-76
2021/03/06 04:32:50;;;;;;;26.75;13.48;;;;;;;-1.49;63.66;101307.19;5022058;28;20045;-77
2021/03/06 04:35:17;;;;;;;31.20;14.07;;;;;;;-1.50;63.96;101306.31;5029063;28;20136;-76
2021/03/06 04:37:43;;;;;;;31.15;14.00;;;;;;;-1.49;63.83;101317.47;5025513;28;20167;-75
2021/03/06 04:40:11;;;;;;;33.80;16.83;;;;;;;-1.50;63.63;101313.16;5029357;28;20308;-75
2021/03/06 04:42:37;;;;;;;36.42;16.40;;;;;;;-1.48;63.82;101311.50;5025360;28;20120;-76
2021/03/06 04:45:07;;;;;;;32.45;16.20;;;;;;;-1.48;63.79;101314.06;5030328;28;20292;-75
2021/03/06 04:47:33;;;;;;;34.70;16.77;;;;;;;-1.44;63.82;101313.34;5025817;28;20046;-76
2021/03/06 04:49:59;;;;;;;33.50;16.55;;;;;;;-1.43;63.60;101322.81;5030192;28;20040;-75
2021/03/06 04:52:26;;;;;;;27.77;14.30;;;;;;;-1.44;63.82;101321.94;5027550;28;20054;-76
2021/03/06 04:54:52;;;;;;;27.23;14.15;;;;;;;-1.43;63.85;101322.81;5034181;28;20076;-76
2021/03/06 04:57:18;;;;;;;22.67;12.57;;;;;;;-1.42;63.85;101321.97;5027299;28;20136;-76
2021/03/06 04:59:44;;;;;;;24.83;11.85;;;;;;;-1.42;63.82;101325.41;5031778;28;20045;-75
2021/03/06 05:02:11;;;;;;;22.35;12.13;;;;;;;-1.43;63.71;101328.81;5028169;28;20133;-75
2021/03/06 05:04:38;;;;;;;21.33;11.57;;;;;;;-1.41;63.84;101326.28;5026479;28;20054;-76
2021/03/06 05:07:04;;;;;;;30.02;13.40;;;;;;;-1.43;63.93;101322.81;5026973;28;20504;-76
2021/03/06 05:09:30;;;;;;;26.65;12.93;;;;;;;-1.42;63.74;101324.53;5030581;28;20136;-76
2021/03/06 05:11:56;;;;;;;25.30;13.48;;;;;;;-1.41;63.87;101321.16;5026639;28;20132;-78
2021/03/06 05:14:22;;;;;;;24.95;13.35;;;;;;;-1.41;63.87;101323.72;5026646;28;20375;-76
2021/03/06 05:16:48;;;;;;;24.27;12.63;;;;;;;-1.39;64.03;101325.50;5027938;28;20560;-77
2021/03/06 05:19:15;;;;;;;22.05;13.90;;;;;;;-1.39;64.05;101322.06;5024295;28;20073;-77
2021/03/06 05:21:41;;;;;;;28.88;13.27;;;;;;;-1.35;63.97;101326.44;5028447;28;20088;-77
2021/03/06 05:24:08;;;;;;;29.90;15.68;;;;;;;-1.33;63.71;101324.78;5028693;28;20045;-78
2021/03/06 05:26:34;;;;;;;32.22;14.93;;;;;;;-1.32;63.91;101326.53;5026771;28;20421;-75
2021/03/06 05:29:01;;;;;;;27.88;14.50;;;;;;;-1.31;63.88;101323.13;5030041;28;20045;-78
2021/03/06 05:31:33;;;;;;;28.35;13.32;;;;;;;-1.30;63.91;101319.72;5029726;28;20087;-76
2021/03/06 05:33:59;;;;;;;28.45;14.65;;;;;;;-1.28;63.85;101323.19;5024181;28;20080;-78
2021/03/06 05:36:26;;;;;;;30.38;14.00;;;;;;;-1.25;63.86;101319.03;5031447;28;20050;-78
2021/03/06 05:38:52;;;;;;;27.65;13.40;;;;;;;-1.07;63.71;101322.88;5029244;28;20053;-77
2021/03/06 05:54:12;;;;;;;30.95;16.58;;;;;;;-0.24;62.47;101336.06;5036170;28;20391;-78
2021/03/06 05:56:41;;;;;;;29.45;17.10;;;;;;;0.00;62.21;101331.50;5031605;28;20053;-78
2021/03/06 05:59:10;;;;;;;34.22;17.40;;;;;;;0.36;61.77;101339.09;5029920;28;20141;-78
2021/03/06 06:01:37;;;;;;;34.15;17.00;;;;;;;0.69;61.27;101341.50;5030217;28;20034;-77
2021/03/06 06:04:05;;;;;;;38.67;18.60;;;;;;;1.02;60.74;101351.56;5030969;28;20584;-78
2021/03/06 06:06:32;;;;;;;32.20;18.48;;;;;;;1.19;60.49;101345.00;5028513;28;20085;-78
2021/03/06 06:08:59;;;;;;;33.55;18.00;;;;;;;1.11;60.44;101350.88;5028334;28;20050;-77
2021/03/06 06:11:28;;;;;;;36.40;19.33;;;;;;;1.17;60.73;101350.97;5027829;28;20077;-77
2021/03/06 06:13:54;;;;;;;30.55;16.60;;;;;;;1.32;60.48;101353.84;5027260;28;20059;-77
2021/03/06 06:16:21;;;;;;;30.80;17.73;;;;;;;1.76;59.91;101354.53;5028899;28;20049;-78
2021/03/06 06:18:49;;;;;;;36.10;19.27;;;;;;;2.30;58.90;101363.06;5027266;28;20438;-78
2021/03/06 06:21:38;;;;;;;29.15;15.80;;;;;;;3.20;57.34;101375.31;5032148;28;20089;-78
2021/03/06 06:24:05;;;;;;;33.97;16.98;;;;;;;3.88;56.02;101369.81;5026366;28;20084;-78
2021/03/06 06:26:32;;;;;;;31.20;18.63;;;;;;;4.06;55.42;101363.00;5031891;28;20485;-77
2021/03/06 06:28:59;;;;;;;30.88;15.75;;;;;;;4.31;55.40;101364.88;5033995;28;20084;-77
2021/03/06 06:31:25;;;;;;;27.23;14.38;;;;;;;4.66;54.64;101367.63;5032017;28;20196;-75
2021/03/06 06:33:52;;;;;;;26.27;14.63;;;;;;;4.73;54.64;101376.31;5029774;28;20049;-75
2021/03/06 06:36:35;;;;;;;24.02;13.65;;;;;;;5.23;53.74;101366.06;5026025;28;20112;-76
2021/03/06 06:39:02;;;;;;;21.60;12.80;;;;;;;6.23;51.68;101372.94;5022979;28;20085;-76
2021/03/06 06:41:49;;;;;;;24.67;11.85;;;;;;;7.19;50.00;101376.84;5026897;28;20500;-76
2021/03/06 06:44:15;;;;;;;27.08;13.27;;;;;;;8.07;48.63;101380.47;5024236;28;20049;-75
2021/03/06 06:46:41;;;;;;;25.38;16.35;;;;;;;9.41;46.23;101376.16;5029479;28;20503;-75
2021/03/06 06:49:07;;;;;;;20.83;12.85;;;;;;;10.65;43.56;101380.06;5027754;28;20053;-75
2021/03/06 06:51:34;;;;;;;20.17;12.40;;;;;;;11.36;42.27;101382.84;5029539;28;20054;-75
2021/03/06 06:54:17;;;;;;;22.77;11.40;;;;;;;12.20;41.47;101380.75;5025215;28;20057;-77
2021/03/06 06:56:43;;;;;;;19.17;10.98;;;;;;;13.21;39.39;101383.97;5031078;28;20405;-76
2021/03/06 06:59:10;;;;;;;20.48;12.43;;;;;;;14.18;37.62;101373.72;5026902;28;20140;-75
2021/03/06 07:01:38;;;;;;;17.88;10.40;;;;;;;14.93;36.21;101385.03;5028304;28;20038;-75
2021/03/06 07:04:06;;;;;;;19.05;10.60;;;;;;;15.54;34.83;101377.31;4975821;28;20613;-75
2021/03/06 07:06:32;;;;;;;20.15;11.25;;;;;;;16.22;33.28;101388.56;5021591;28;20114;-75
2021/03/06 07:09:12;;;;;;;17.77;10.32;;;;;;;16.98;31.93;101387.78;5028768;28;20045;-74
2021/03/06 07:11:40;;;;;;;16.30;10.48;;;;;;;17.32;31.35;101382.63;5030620;28;20540;-74
2021/03/06 07:14:06;;;;;;;17.02;9.20;;;;;;;17.81;30.50;101395.28;5025685;28;20057;-73
2021/03/06 07:16:56;;;;;;;20.02;10.60;;;;;;;18.47;29.70;101390.06;5024466;28;20157;-74
2021/03/06 07:19:23;;;;;;;20.00;11.10;;;;;;;18.92;28.22;101386.75;5026901;28;20055;-75
2021/03/06 07:21:50;;;;;;;16.25;9.20;;;;;;;19.21;28.21;101384.28;5023833;28;20054;-72
2021/03/06 07:24:17;;;;;;;16.42;9.40;;;;;;;19.66;27.24;101387.00;5023233;28;20417;-75
2021/03/06 07:26:43;;;;;;;22.65;12.57;;;;;;;20.07;26.67;101383.72;5021716;28;20064;-76
2021/03/06 07:29:10;;;;;;;28.65;14.73;;;;;;;20.55;25.70;101389.69;5021049;28;20468;-73
2021/03/06 07:31:38;;;;;;;25.90;15.80;;;;;;;20.82;24.97;101395.97;5022834;28;20136;-75
2021/03/06 07:34:08;;;;;;;13.95;8.55;;;;;;;21.10;24.41;101381.75;5024555;28;20045;-75
2021/03/06 07:36:38;;;;;;;16.30;8.50;;;;;;;21.29;23.80;101384.09;5026175;28;20095;-75
2021/03/06 07:39:07;;;;;;;11.35;7.63;;;;;;;21.48;23.47;101381.09;5028630;28;20091;-78
2021/03/06 07:41:39;;;;;;;13.25;8.50;;;;;;;21.49;23.20;101386.31;5025764;28;20052;-75
2021/03/06 07:44:07;;;;;;;14.93;8.75;;;;;;;21.66;22.62;101384.34;5024371;28;20041;-79
2021/03/06 07:46:37;;;;;;;15.48;8.40;;;;;;;21.45;22.77;101386.63;5026209;28;20088;-76
2021/03/06 07:49:12;;;;;;;20.35;9.35;;;;;;;21.29;23.06;101389.44;5033597;28;20075;-80
2021/03/06 07:51:42;;;;;;;16.65;8.90;;;;;;;20.78;23.35;101386.44;5036782;28;20049;-80
2021/03/06 07:54:11;;;;;;;15.23;9.70;;;;;;;19.29;24.42;101392.69;5027148;28;20053;-78
2021/03/06 07:56:37;;;;;;;14.20;10.07;;;;;;;18.45;25.46;101397.25;5027369;28;20096;-79
2021/03/06 07:59:04;;;;;;;15.32;10.07;;;;;;;17.60;26.04;101395.38;5019813;28;20053;-79
2021/03/06 08:01:38;;;;;;;12.35;8.18;;;;;;;17.28;25.98;101402.25;5026870;28;20065;-81
2021/03/06 08:04:05;;;;;;;30.50;10.32;;;;;;;17.17;26.06;101398.38;5026280;28;20073;-80
2021/03/06 08:06:33;;;;;;;16.98;9.55;;;;;;;16.92;26.06;101398.69;5026160;28;20068;-80
2021/03/06 08:09:10;;;;;;;11.75;7.82;;;;;;;16.63;26.16;101389.38;5025852;28;20107;-80
2021/03/06 08:11:44;;;;;;;12.65;7.55;;;;;;;16.79;25.66;101389.56;5031083;28;20076;-75
2021/03/06 08:14:39;;;;;;;13.95;7.45;;;;;;;17.01;25.83;101398.25;5027009;28;20120;-81
2021/03/06 08:17:37;;;;;;;10.75;5.95;;;;;;;18.21;24.49;101400.25;5031439;28;20141;-80
2021/03/06 08:20:06;;;;;;;11.00;5.20;;;;;;;19.17;23.18;101397.75;5029832;28;20076;-79
2021/03/06 08:22:34;;;;;;;10.98;5.97;;;;;;;18.71;23.64;101404.72;5027451;28;20046;-82
2021/03/06 08:25:19;;;;;;;10.80;5.78;;;;;;;16.78;25.38;101409.91;5029233;28;20050;-79
2021/03/06 08:28:20;;;;;;;8.93;5.15;;;;;;;16.32;25.72;101403.13;5030448;28;20050;-77
2021/03/06 08:30:47;;;;;;;8.15;5.53;;;;;;;16.30;25.26;101405.00;5030849;28;20070;-79
2021/03/06 08:33:16;;;;;;;18.75;5.63;;;;;;;16.37;25.06;101396.72;5029673;28;20045;-77
2021/03/06 08:35:43;;;;;;;16.35;6.70;;;;;;;16.64;25.12;101409.63;5028131;28;20616;-78
2021/03/06 08:38:30;;;;;;;13.32;7.35;;;;;;;17.31;23.98;101411.84;5023559;28;20142;-78
2021/03/06 08:40:58;;;;;;;10.48;6.35;;;;;;;19.00;21.81;101410.28;5023275;28;20045;-79
2021/03/06 08:43:24;;;;;;;8.13;4.25;;;;;;;20.09;20.91;101405.75;5028527;28;20401;-78
2021/03/06 08:45:51;;;;;;;10.13;5.43;;;;;;;20.29;20.15;101399.25;5027254;28;20065;-77
2021/03/06 08:48:22;;;;;;;8.95;4.60;;;;;;;19.48;20.66;101402.19;5030283;28;20053;-73
2021/03/06 08:50:48;;;;;;;;;;;;;;;17.94;23.88;101413.16;5034009;28;20057;-74
2021/03/06 08:53:15;;;;;;;6.80;4.00;;;;;;;18.62;22.01;101405.19;5024589;28;20020;-74
2021/03/06 08:55:45;;;;;;;9.75;5.47;;;;;;;18.99;21.47;101398.78;5010701;28;20138;-75
2021/03/06 08:58:12;;;;;;;9.30;4.80;;;;;;;18.03;22.17;101405.66;5010448;28;20042;-73
2021/03/06 09:00:40;;;;;;;10.98;4.03;;;;;;;17.50;22.75;101401.22;5019745;28;20045;-74
2021/03/06 09:03:12;;;;;;;11.90;5.18;;;;;;;16.25;23.43;101394.63;5008054;28;20109;-78
2021/03/06 09:05:38;;;;;;;10.88;5.78;;;;;;;15.94;23.98;101396.84;5013945;28;20493;-75
2021/03/06 09:08:05;;;;;;;10.95;5.78;;;;;;;16.63;23.13;101390.25;5015013;28;20046;-75
2021/03/06 09:10:36;;;;;;;10.80;6.03;;;;;;;18.24;21.23;101393.94;5020458;28;20505;-76
2021/03/06 09:13:06;;;;;;;12.52;6.43;;;;;;;18.37;20.75;101387.06;5003908;28;20569;-76
2021/03/06 09:15:54;;;;;;;9.03;5.60;;;;;;;18.85;20.67;101383.59;5010697;28;20045;-75
2021/03/06 09:18:22;;;;;;;9.13;5.00;;;;;;;19.35;19.95;101379.88;5015185;28;20053;-75
2021/03/06 09:20:52;;;;;;;7.15;4.40;;;;;;;19.28;19.96;101386.50;5012097;28;20146;-75
2021/03/06 09:23:35;;;;;;;9.27;3.78;;;;;;;18.68;20.32;101386.28;5006833;28;20045;-76
2021/03/06 09:26:04;;;;;;;10.45;5.00;;;;;;;19.54;19.20;101387.72;5011809;28;20081;-76
2021/03/06 09:28:33;;;;;;;10.70;6.03;;;;;;;21.33;17.79;101388.28;5010856;28;20046;-75
2021/03/06 09:31:01;;;;;;;15.18;7.00;;;;;;;22.64;16.94;101392.69;5020743;28;20120;-75
2021/03/06 09:33:30;;;;;;;8.38;4.70;;;;;;;23.20;15.94;101390.47;5013438;28;20073;-78
2021/03/06 09:36:00;;;;;;;9.23;4.20;;;;;;;22.71;16.28;101385.97;5017577;28;20547;-76
2021/03/06 09:38:27;;;;;;;7.05;4.78;;;;;;;22.19;17.06;101389.59;5011037;28;20053;-77
2021/03/06 09:40:54;;;;;;;7.57;4.32;;;;;;;21.65;16.83;101387.94;5021553;28;20103;-74
2021/03/06 09:43:26;;;;;;;7.90;4.38;;;;;;;21.36;17.43;101377.41;5018483;28;20529;-76
2021/03/06 09:45:54;;;;;;;7.15;4.75;;;;;;;21.71;17.22;101376.88;5021716;28;20283;-75
2021/03/06 09:48:20;;;;;;;5.38;3.88;;;;;;;20.82;17.45;101376.44;5008690;28;20059;-73
2021/03/06 09:50:47;;;;;;;9.45;4.38;;;;;;;19.75;19.02;101370.50;5016975;28;20142;-75
2021/03/06 09:53:15;;;;;;;6.18;3.95;;;;;;;18.36;20.32;101376.53;5024867;28;20065;-75
2021/03/06 09:55:42;;;;;;;8.70;4.63;;;;;;;16.79;22.06;101366.59;5030895;28;20116;-75
2021/03/06 09:58:19;;;;;;;7.53;4.35;;;;;;;15.41;23.75;101373.44;5032287;28;20157;-75
2021/03/06 10:00:46;;;;;;;9.57;4.25;;;;;;;14.55;24.87;101378.53;5033077;28;20140;-75
2021/03/06 10:03:27;;;;;;;8.55;4.85;;;;;;;13.91;25.80;101376.38;5029209;28;20084;-76
2021/03/06 10:05:55;;;;;;;9.57;4.60;;;;;;;13.78;25.96;101371.59;5033008;28;20053;-75
2021/03/06 10:08:22;;;;;;;10.30;5.45;;;;;;;13.62;26.43;101376.50;5032703;28;20057;-76
2021/03/06 10:10:49;;;;;;;13.18;6.78;;;;;;;13.17;26.84;101376.19;5032516;28;20045;-75
2021/03/06 10:13:17;;;;;;;9.38;6.28;;;;;;;12.83;27.31;101371.94;5032282;28;20049;-75
2021/03/06 10:15:44;;;;;;;10.80;5.30;;;;;;;12.56;28.04;101365.72;5032203;28;20408;-74
2021/03/06 10:18:10;;;;;;;9.52;4.50;;;;;;;12.40;28.30;101372.31;5030421;28;20502;-78
2021/03/06 10:20:38;;;;;;;9.40;5.95;;;;;;;12.29;28.55;101366.50;5032238;28;20045;-78
2021/03/06 10:23:04;;;;;;;20.10;5.65;;;;;;;12.08;29.00;101378.47;5026713;28;20053;-79
2021/03/06 10:25:30;;;;;;;11.95;6.60;;;;;;;11.99;29.30;101376.06;5031304;28;20049;-78
2021/03/06 10:27:57;;;;;;;13.07;5.72;;;;;;;12.00;29.12;101367.28;5032546;28;20577;-79
2021/03/06 10:30:27;;;;;;;9.13;5.32;;;;;;;11.55;29.16;101375.41;5032364;28;20477;-79
2021/03/06 10:32:56;;;;;;;9.52;5.55;;;;;;;11.06;29.81;101375.69;5031174;28;20049;-78
2021/03/06 10:35:33;;;;;;;8.88;4.55;;;;;;;10.58;30.06;101375.81;5031395;28;20056;-78
2021/03/06 10:38:01;;;;;;;11.38;6.05;;;;;;;10.47;30.19;101375.19;5032298;28;20049;-79
2021/03/06 10:40:52;;;;;;;10.68;5.90;;;;;;;10.34;30.70;101374.56;5028155;28;20053;-77
2021/03/06 10:43:40;;;;;;;10.57;6.10;;;;;;;10.04;31.23;101374.22;5024487;28;20037;-80
2021/03/06 10:46:11;;;;;;;17.05;8.18;;;;;;;9.74;31.87;101369.50;5025666;28;20060;-78
2021/03/06 10:48:37;;;;;;;;;;;;;;;9.70;31.46;101373.94;5031631;28;20073;-75
2021/03/06 10:51:04;;;;;;;13.48;7.95;;;;;;;9.31;31.78;101378.06;5031412;28;19934;-75
2021/03/06 10:53:31;;;;;;;10.05;5.97;;;;;;;9.09;32.13;101363.56;5027713;28;20064;-76
2021/03/06 10:55:58;;;;;;;15.95;8.10;;;;;;;8.97;32.77;101359.38;5027482;28;20049;-77
2021/03/06 10:58:47;;;;;;;11.90;5.15;;;;;;;9.23;32.16;101358.13;5029257;28;20065;-76
2021/03/06 11:01:16;;;;;;;14.38;8.20;;;;;;;9.57;32.07;101355.81;5027115;28;20072;-76
2021/03/06 11:03:43;;;;;;;19.20;8.90;;;;;;;9.70;32.38;101352.13;5028647;28;20037;-76
2021/03/06 11:06:10;;;;;;;21.50;9.95;;;;;;;9.68;32.16;101352.16;5027683;28;20141;-77
2021/03/06 11:08:37;;;;;;;14.50;7.10;;;;;;;9.58;32.29;101347.06;5030306;28;20107;-77
2021/03/06 11:11:05;;;;;;;15.00;6.07;;;;;;;9.57;32.63;101342.75;5028111;28;20052;-76
2021/03/06 11:13:39;;;;;;;8.52;4.07;;;;;;;9.64;32.26;101341.75;5027613;28;20065;-76
2021/03/06 11:16:12;;;;;;;7.15;4.25;;;;;;;9.79;31.92;101333.66;5027590;28;20050;-76
2021/03/06 11:18:40;;;;;;;8.65;3.50;;;;;;;10.06;31.48;101338.38;5032057;28;20065;-76
2021/03/06 11:21:10;;;;;;;8.85;4.18;;;;;;;10.39;31.36;101330.75;5028933;28;20053;-73
2021/03/06 11:23:38;;;;;;;7.97;3.70;;;;;;;10.36;31.09;101330.81;5048276;28;20084;-76
2021/03/06 11:26:04;;;;;;;7.00;3.90;;;;;;;10.40;30.87;101324.63;5043097;28;20065;-77
2021/03/06 11:28:31;;;;;;;5.25;3.28;;;;;;;10.38;30.68;101308.06;5029311;28;20072;-76
2021/03/06 11:30:59;;;;;;;6.03;3.53;;;;;;;10.55;31.00;101305.94;5029617;28;20605;-78
2021/03/06 11:33:26;;;;;;;7.70;3.75;;;;;;;10.65;30.82;101310.13;5025891;28;20045;-75
2021/03/06 11:35:53;;;;;;;9.40;3.75;;;;;;;10.61;31.03;101299.72;5025093;28;20041;-76
2021/03/06 11:38:22;;;;;;;9.00;4.82;;;;;;;10.79;30.77;101293.19;5027217;28;20061;-77